Time;durP1;ratioP1;P1;durP2;ratioP2;P2;SDS_P1;SDS_P2;PMS_P1;PMS_P2;Temp;Humidity;BMP_temperature;BMP_pressure;BME280_temperature;BME280_humidity;BME280_pressure;Samples;Min_cycle;Max_cycle;Signal;HPM_P1;HPM_P2
2023/10/17 00:01:21;;;;;;;12.77;8.98;;;8.10;90.90;;;;;;4959737;28;20125;-83
2023/10/17 00:03:47;;;;;;;13.20;8.98;;;8.10;90.90;;;;;;4959870;28;20046;-82
2023/10/17 00:06:22;;;;;;;13.70;8.55;;;8.00;90.80;;;;;;4912024;28;20038;-83
2023/10/17 00:08:51;;;;;;;11.77;7.80;;;8.10;90.70;;;;;;4913817;28;20042;-83
2023/10/17 00:11:17;;;;;;;13.18;8.65;;;8.00;90.60;;;;;;4944061;28;20042;-83
2023/10/17 00:14:11;;;;;;;12.75;8.23;;;8.00;90.50;;;;;;4912475;28;20043;-82
2023/10/17 00:16:37;;;;;;;14.55;8.55;;;8.00;90.60;;;;;;4942614;28;20129;-82
2023/10/17 00:19:09;;;;;;;8.95;7.70;;;8.00;90.50;;;;;;4927759;28;20433;-83
2023/10/17 00:21:36;;;;;;;11.45;7.53;;;8.00;90.40;;;;;;4928441;28;20042;-83
2023/10/17 00:24:09;;;;;;;13.48;8.40;;;8.00;90.50;;;;;;4959984;28;20045;-83
2023/10/17 00:26:36;;;;;;;10.30;7.22;;;8.00;90.60;;;;;;4914788;28;20153;-82
2023/10/17 00:29:05;;;;;;;10.18;6.53;;;8.00;90.60;;;;;;4943550;28;20491;-82
2023/10/17 00:31:32;;;;;;;11.10;8.18;;;7.90;90.70;;;;;;4943891;28;20372;-83
2023/10/17 00:33:58;;;;;;;13.95;8.93;;;8.00;90.70;;;;;;4959457;28;20121;-83
2023/10/17 00:36:26;;;;;;;10.75;7.45;;;8.00;90.80;;;;;;4944920;28;20078;-83
2023/10/17 00:38:54;;;;;;;14.20;7.80;;;8.00;91.10;;;;;;4943151;28;20046;-83
2023/10/17 00:41:34;;;;;;;10.15;8.02;;;8.00;91.10;;;;;;4944084;28;20390;-83
2023/10/17 00:43:59;;;;;;;8.90;6.60;;;8.00;91.10;;;;;;4916491;28;20078;-82
2023/10/17 00:46:25;;;;;;;9.10;7.00;;;8.10;91.20;;;;;;4932324;28;20101;-83
2023/10/17 00:48:54;;;;;;;12.82;7.68;;;8.10;91.30;;;;;;4926952;28;20418;-84
2023/10/17 00:51:21;;;;;;;11.48;7.32;;;8.10;91.30;;;;;;4958958;28;20039;-83
2023/10/17 00:53:47;;;;;;;9.20;7.28;;;8.20;91.20;;;;;;4942884;28;20049;-83
2023/10/17 00:56:13;;;;;;;11.00;6.88;;;8.20;91.20;;;;;;4959112;28;20129;-83
2023/10/17 00:58:42;;;;;;;13.02;7.50;;;8.30;91.10;;;;;;4958543;28;20495;-83
2023/10/17 01:01:20;;;;;;;12.48;7.70;;;8.30;91.20;;;;;;4958621;28;20049;-84
2023/10/17 01:03:48;;;;;;;12.00;6.55;;;8.30;91.30;;;;;;4960154;28;20054;-83
2023/10/17 01:06:23;;;;;;;9.65;7.28;;;8.30;91.20;;;;;;4943152;28;20050;-83
2023/10/17 01:08:50;;;;;;;8.65;6.47;;;8.40;91.20;;;;;;4943937;28;20050;-83
2023/10/17 01:11:21;;;;;;;10.10;7.28;;;8.40;91.20;;;;;;4926865;28;20054;-82
2023/10/17 01:13:52;;;;;;;9.88;7.13;;;8.40;91.00;;;;;;4958614;28;20108;-82
2023/10/17 01:16:19;;;;;;;10.25;6.85;;;8.40;91.00;;;;;;4942623;28;20507;-82
2023/10/17 01:18:46;;;;;;;11.30;7.20;;;8.40;91.30;;;;;;4910860;28;20505;-83
2023/10/17 01:21:20;;;;;;;8.77;6.93;;;8.40;91.40;;;;;;4942446;28;20042;-83
2023/10/17 01:23:47;;;;;;;12.45;6.78;;;8.40;91.30;;;;;;4958300;28;20043;-82
2023/10/17 01:26:26;;;;;;;9.73;6.60;;;8.40;91.40;;;;;;4942070;28;20049;-81
2023/10/17 01:28:53;;;;;;;9.55;6.45;;;8.40;91.30;;;;;;4957993;28;20082;-82
2023/10/17 01:31:22;;;;;;;13.95;7.15;;;8.30;91.50;;;;;;4958279;28;20454;-83
2023/10/17 01:33:59;;;;;;;9.10;6.65;;;8.40;91.50;;;;;;4957912;28;20043;-82
2023/10/17 01:36:25;;;;;;;9.98;7.28;;;8.40;91.50;;;;;;4958331;28;20043;-84
2023/10/17 01:38:52;;;;;;;10.43;6.75;;;8.40;91.40;;;;;;4957734;28;20054;-83
2023/10/17 01:41:18;;;;;;;10.73;6.97;;;8.40;91.40;;;;;;4942274;28;20130;-83
2023/10/17 01:43:48;;;;;;;9.15;5.82;;;8.30;91.40;;;;;;4957931;28;20070;-83
2023/10/17 01:46:15;;;;;;;7.85;6.40;;;8.30;91.40;;;;;;4961755;28;20058;-82
2023/10/17 01:48:47;;;;;;;7.88;6.45;;;8.40;91.40;;;;;;4977098;28;20051;-83
2023/10/17 01:51:14;;;;;;;8.80;6.53;;;8.30;91.40;;;;;;4977087;28;20046;-84
2023/10/17 01:53:41;;;;;;;9.13;5.38;;;8.30;91.40;;;;;;4977005;28;20081;-82
2023/10/17 01:56:13;;;;;;;8.68;5.38;;;8.20;91.20;;;;;;4976948;28;20046;-82
2023/10/17 01:58:49;;;;;;;8.25;5.90;;;8.20;91.20;;;;;;4977102;28;20169;-83
2023/10/17 02:01:24;;;;;;;9.30;5.25;;;8.10;91.10;;;;;;4976872;28;20573;-84
2023/10/17 02:04:12;;;;;;;6.25;4.90;;;8.10;91.10;;;;;;4976953;28;20125;-83
2023/10/17 02:06:39;;;;;;;6.47;4.70;;;8.00;91.10;;;;;;4979707;28;20042;-82
2023/10/17 02:09:24;;;;;;;6.80;5.05;;;8.00;91.20;;;;;;4976595;28;20136;-84
2023/10/17 02:12:00;;;;;;;7.03;5.15;;;8.00;91.10;;;;;;4976724;28;20552;-81
2023/10/17 02:14:26;;;;;;;6.95;5.00;;;7.90;91.10;;;;;;4961406;28;20109;-82
2023/10/17 02:16:52;;;;;;;8.20;4.50;;;7.80;91.00;;;;;;4976610;28;20078;-81
2023/10/17 02:19:19;;;;;;;6.75;4.40;;;7.80;90.90;;;;;;4976889;28;20470;-83
2023/10/17 02:21:49;;;;;;;5.40;4.40;;;7.70;91.00;;;;;;4961645;28;20038;-82
2023/10/17 02:24:19;;;;;;;6.78;4.70;;;7.70;90.90;;;;;;4978816;28;20038;-83
2023/10/17 02:27:00;;;;;;;8.25;4.50;;;7.60;90.90;;;;;;4979566;28;20102;-84
2023/10/17 02:29:29;;;;;;;5.70;4.35;;;7.60;90.90;;;;;;4979162;28;20042;-83
2023/10/17 02:31:55;;;;;;;6.28;4.75;;;7.50;90.80;;;;;;4979295;28;20042;-82
2023/10/17 02:34:22;;;;;;;6.43;4.40;;;7.50;90.70;;;;;;4979738;28;20577;-82
2023/10/17 02:36:54;;;;;;;7.97;4.18;;;7.50;90.80;;;;;;4980671;28;20128;-82
2023/10/17 02:39:22;;;;;;;6.80;4.60;;;7.50;90.80;;;;;;4975832;28;20042;-82
2023/10/17 02:42:00;;;;;;;5.93;4.28;;;7.40;90.80;;;;;;4960551;28;20479;-82
2023/10/17 02:44:27;;;;;;;4.70;3.63;;;7.40;90.80;;;;;;4976487;28;20061;-83
2023/10/17 02:46:58;;;;;;;5.30;4.13;;;7.40;90.70;;;;;;4968328;28;20125;-83
2023/10/17 02:49:36;;;;;;;6.03;3.92;;;7.30;90.60;;;;;;4972842;28;20114;-84
2023/10/17 02:52:03;;;;;;;8.05;4.53;;;7.30;90.60;;;;;;4973223;28;20043;-83
2023/10/17 02:54:28;;;;;;;5.60;3.75;;;7.30;90.60;;;;;;4925230;28;20060;-83
2023/10/17 02:56:54;;;;;;;8.43;4.00;;;7.20;90.50;;;;;;4956870;28;20163;-83
2023/10/17 02:59:21;;;;;;;8.68;4.78;;;7.20;90.50;;;;;;4940795;28;20054;-82
2023/10/17 03:01:53;;;;;;;5.18;4.18;;;7.20;90.40;;;;;;4941434;28;20043;-82
2023/10/17 03:04:23;;;;;;;10.85;4.28;;;7.10;90.40;;;;;;4957210;28;20038;-83
2023/10/17 03:06:54;;;;;;;6.78;4.18;;;7.10;90.40;;;;;;4957016;28;20450;-84
2023/10/17 03:14:40;;;;;;;6.13;3.63;;;7.00;90.30;;;;;;4957617;28;20057;-83
2023/10/17 03:17:07;;;;;;;5.82;4.13;;;7.00;90.30;;;;;;4972770;28;20039;-83
2023/10/17 03:19:34;;;;;;;6.60;3.47;;;7.00;90.20;;;;;;4940583;28;20562;-82
2023/10/17 03:22:16;;;;;;;7.35;3.97;;;7.00;90.30;;;;;;4940765;28;20095;-82
2023/10/17 03:24:46;;;;;;;5.55;3.78;;;7.00;90.30;;;;;;4940850;28;20037;-82
2023/10/17 03:27:26;;;;;;;6.20;3.13;;;6.90;90.50;;;;;;4956749;28;20097;-83
2023/10/17 03:29:52;;;;;;;5.53;3.25;;;6.90;90.40;;;;;;4956947;28;20117;-84
2023/10/17 03:32:21;;;;;;;6.40;3.10;;;6.90;90.50;;;;;;4940654;28;20042;-83
2023/10/17 03:34:56;;;;;;;3.63;2.45;;;6.90;90.50;;;;;;4956560;28;20039;-83
2023/10/17 03:39:53;;;;;;;5.65;1.95;;;6.80;90.40;;;;;;4956318;28;20054;-83
2023/10/17 03:47:53;;;;;;;3.20;1.98;;;6.60;90.50;;;;;;4970932;28;20053;-82
2023/10/17 03:53:29;;;;;;;3.42;1.92;;;6.60;90.60;;;;;;4957044;28;20253;-82
2023/10/17 03:56:00;;;;;;;2.75;1.55;;;6.50;90.70;;;;;;4964677;28;20046;-82
2023/10/17 04:00:58;;;;;;;2.88;2.15;;;6.60;91.00;;;;;;4979524;28;20050;-83
2023/10/17 04:03:30;;;;;;;2.25;1.98;;;6.60;91.10;;;;;;4979493;28;20041;-82
2023/10/17 04:08:37;;;;;;;3.80;3.45;;;6.70;91.50;;;;;;4988498;28;20049;-83
2023/10/17 04:14:01;;;;;;;8.98;4.20;;;6.90;91.90;;;;;;5004518;28;20054;-82
2023/10/17 04:16:34;;;;;;;4.05;3.65;;;6.90;92.00;;;;;;4987769;28;20094;-81
2023/10/17 04:19:01;;;;;;;4.10;3.65;;;7.00;91.90;;;;;;5012374;28;20042;-82
2023/10/17 04:21:30;;;;;;;4.90;4.38;;;7.00;92.10;;;;;;5010597;28;20069;-82
2023/10/17 04:23:59;;;;;;;6.28;4.50;;;7.00;92.00;;;;;;4969206;28;20093;-80
2023/10/17 04:26:28;;;;;;;6.22;3.53;;;7.00;91.90;;;;;;4995534;28;20050;-81
2023/10/17 04:29:30;;;;;;;4.70;3.95;;;7.00;91.90;;;;;;4963403;28;20042;-83
2023/10/17 04:31:55;;;;;;;4.35;3.20;;;7.00;91.80;;;;;;4963281;28;20156;-81
2023/10/17 04:34:26;;;;;;;8.48;4.53;;;7.00;92.00;;;;;;4963854;28;20050;-81
2023/10/17 04:36:53;;;;;;;8.93;5.88;;;7.00;92.10;;;;;;4963233;28;20556;-82
2023/10/17 04:39:25;;;;;;;6.30;4.95;;;7.10;92.10;;;;;;4962532;28;20076;-81
2023/10/17 04:44:33;;;;;;;8.50;4.80;;;7.20;92.10;;;;;;4978535;28;20042;-81
2023/10/17 04:49:31;;;;;;;5.45;3.78;;;7.20;92.10;;;;;;4962672;28;20050;-81
2023/10/17 04:52:06;;;;;;;7.70;4.40;;;7.20;92.10;;;;;;4978216;28;20054;-80
2023/10/17 04:57:07;;;;;;;8.95;4.50;;;7.30;92.00;;;;;;4978241;28;20054;-79
2023/10/17 06:18:56;;;;;;;4.70;3.42;;;7.10;91.50;;;;;;4957254;28;20057;-83
2023/10/17 06:21:35;;;;;;;5.07;3.33;;;7.10;91.50;;;;;;4973593;28;20399;-82
2023/10/17 06:24:44;;;;;;;5.22;4.35;;;7.00;91.40;;;;;;4941337;28;20049;-83
2023/10/17 06:34:20;;;;;;;6.03;4.13;;;6.80;91.20;;;;;;4973612;28;20062;-83
2023/10/17 06:36:50;;;;;;;6.45;4.00;;;6.80;91.20;;;;;;4957160;28;20051;-83
2023/10/17 06:39:18;;;;;;;6.07;4.28;;;6.70;91.20;;;;;;4941137;28;20140;-84
2023/10/17 06:41:47;;;;;;;7.57;4.43;;;6.70;91.20;;;;;;4957078;28;20189;-84
2023/10/17 06:44:33;;;;;;;7.30;5.00;;;6.70;91.30;;;;;;4975642;28;20383;-83
2023/10/17 06:47:07;;;;;;;6.80;5.60;;;6.70;91.30;;;;;;4994090;28;20055;-86
2023/10/17 06:52:19;;;;;;;6.53;5.13;;;6.70;91.50;;;;;;4974790;28;20510;-85
2023/10/17 06:54:52;;;;;;;8.52;4.78;;;6.70;91.60;;;;;;4990041;28;20038;-83
2023/10/17 06:57:24;;;;;;;6.85;4.65;;;6.70;91.60;;;;;;4975944;28;20069;-81
2023/10/17 07:00:00;;;;;;;5.35;4.68;;;6.70;91.60;;;;;;4959879;28;20446;-83
2023/10/17 07:02:41;;;;;;;5.85;4.78;;;6.70;91.50;;;;;;5006564;28;20050;-83
2023/10/17 07:05:08;;;;;;;8.63;5.10;;;6.70;91.60;;;;;;4946130;28;20505;-82
2023/10/17 07:07:41;;;;;;;4.78;3.83;;;6.70;91.60;;;;;;4976479;28;20046;-83
2023/10/17 07:10:24;;;;;;;4.22;3.58;;;6.70;91.70;;;;;;4961138;28;20399;-81
2023/10/17 07:13:27;;;;;;;6.63;4.50;;;6.80;91.70;;;;;;4946463;28;20053;-83
2023/10/17 07:15:55;;;;;;;8.48;4.50;;;6.80;91.70;;;;;;4992382;28;20046;-83
2023/10/17 07:23:45;;;;;;;7.28;4.75;;;6.90;91.70;;;;;;4976369;28;20046;-84
2023/10/17 07:28:57;;;;;;;7.65;4.95;;;7.00;91.60;;;;;;4980084;28;20049;-83
2023/10/17 07:31:23;;;;;;;9.18;5.03;;;7.10;91.70;;;;;;4963835;28;20054;-84
2023/10/17 07:36:34;;;;;;;10.05;5.30;;;7.10;91.70;;;;;;5001372;28;20062;-82
2023/10/17 07:39:09;;;;;;;7.55;4.82;;;7.20;91.70;;;;;;4989306;28;20046;-84
2023/10/17 07:41:37;;;;;;;7.75;4.65;;;7.30;91.70;;;;;;4996149;28;20061;-84
2023/10/17 07:44:21;;;;;;;9.60;5.88;;;7.30;91.70;;;;;;4995525;28;20129;-81
2023/10/17 07:46:48;;;;;;;5.10;3.80;;;7.40;91.80;;;;;;4995928;28;20112;-83
2023/10/17 07:49:18;;;;;;;7.60;4.47;;;7.40;91.90;;;;;;4963527;28;20561;-81
2023/10/17 07:51:44;;;;;;;8.35;4.32;;;7.50;91.80;;;;;;4963668;28;20131;-82
2023/10/17 07:54:16;;;;;;;6.20;3.90;;;7.60;91.70;;;;;;4979423;28;20093;-83
2023/10/17 07:56:50;;;;;;;7.70;3.67;;;7.70;91.70;;;;;;4985363;28;20041;-81
2023/10/17 07:59:16;;;;;;;7.35;4.32;;;7.70;91.70;;;;;;4983651;28;20525;-84
2023/10/17 08:01:43;;;;;;;5.97;3.60;;;7.80;91.70;;;;;;4955382;28;20111;-82
2023/10/17 08:06:42;;;;;;;6.55;3.80;;;7.90;91.90;;;;;;4987103;28;20137;-83
2023/10/17 08:09:36;;;;;;;7.65;4.07;;;8.00;91.70;;;;;;4995890;28;20121;-81
2023/10/17 08:11:55;;;;;;;9.93;3.85;;;8.10;91.60;;;;;;4978042;28;20057;-81
2023/10/17 08:14:41;;;;;;;6.07;3.63;;;8.10;91.50;;;;;;4987497;28;20618;-82
2023/10/17 08:17:09;;;;;;;7.18;3.33;;;8.20;91.50;;;;;;4973696;28;20046;-80
2023/10/17 08:22:20;;;;;;;5.82;3.30;;;8.40;90.90;;;;;;4985596;28;20517;-80
2023/10/17 08:24:51;;;;;;;8.20;3.75;;;8.60;90.70;;;;;;4984665;28;20050;-83
2023/10/17 08:32:55;;;;;;;6.32;3.00;;;8.90;90.50;;;;;;4988674;28;20597;-83
2023/10/17 08:35:25;;;;;;;6.80;2.47;;;9.00;90.50;;;;;;4983926;28;20081;-83
2023/10/17 08:37:52;;;;;;;5.20;2.63;;;9.10;89.60;;;;;;4956174;28;20869;-83
2023/10/17 08:43:10;;;;;;;5.28;2.40;;;9.30;89.70;;;;;;4985646;28;20529;-81
2023/10/17 08:45:39;;;;;;;7.50;2.55;;;9.50;89.40;;;;;;5003377;28;20081;-84
2023/10/17 08:48:06;;;;;;;10.88;2.47;;;9.50;89.40;;;;;;4981126;28;20128;-81
2023/10/17 08:50:39;;;;;;;9.63;3.03;;;9.60;88.70;;;;;;4986543;28;20053;-80
2023/10/17 08:53:13;;;;;;;5.45;1.98;;;9.70;88.10;;;;;;4986279;28;20061;-81
2023/10/17 08:55:40;;;;;;;4.35;2.05;;;9.80;87.70;;;;;;4964573;28;20058;-80
2023/10/17 08:58:09;;;;;;;3.80;1.40;;;10.00;87.70;;;;;;4977357;28;20059;-79
2023/10/17 09:03:10;;;;;;;4.43;1.52;;;10.10;85.30;;;;;;4990254;28;20064;-86
2023/10/17 09:11:29;;;;;;;2.10;1.30;;;10.40;83.60;;;;;;4987441;28;20054;-83
2023/10/17 09:14:17;;;;;;;2.90;1.20;;;10.40;82.70;;;;;;4994701;28;20049;-82
2023/10/17 09:17:00;;;;;;;3.80;1.30;;;10.50;82.10;;;;;;4987055;28;20061;-82
2023/10/17 09:19:26;;;;;;;3.88;1.42;;;10.70;83.30;;;;;;5000286;28;20153;-82
2023/10/17 09:21:51;;;;;;;5.93;1.63;;;10.80;82.30;;;;;;4993149;28;20675;-82
2023/10/17 09:24:37;;;;;;;4.47;1.50;;;10.80;81.40;;;;;;4953755;28;20564;-82
2023/10/17 09:27:12;;;;;;;3.05;1.65;;;10.80;80.90;;;;;;4994779;28;20465;-82
2023/10/17 09:29:49;;;;;;;5.40;2.42;;;10.90;79.50;;;;;;4993413;28;20050;-82
2023/10/17 09:32:48;;;;;;;6.20;2.08;;;11.00;80.40;;;;;;4982032;28;20453;-83
2023/10/17 09:35:15;;;;;;;4.15;1.55;;;11.10;80.70;;;;;;4949655;28;20465;-81
2023/10/17 09:37:44;;;;;;;5.75;2.65;;;11.20;80.70;;;;;;4990714;28;20052;-82
2023/10/17 09:40:22;;;;;;;4.47;2.05;;;11.30;81.40;;;;;;4978026;28;20409;-83
2023/10/17 09:42:48;;;;;;;6.20;1.70;;;11.40;79.60;;;;;;4985578;28;20108;-82
2023/10/17 09:45:15;;;;;;;4.85;1.73;;;11.50;79.10;;;;;;4975473;28;20486;-82
2023/10/17 09:47:44;;;;;;;4.43;1.30;;;11.50;77.30;;;;;;5007783;28;20382;-82
2023/10/17 09:50:21;;;;;;;2.50;1.40;;;11.60;76.70;;;;;;4979912;28;20420;-82
2023/10/17 09:52:54;;;;;;;6.28;2.25;;;11.60;75.40;;;;;;5000312;28;20409;-82
2023/10/17 09:55:24;;;;;;;6.68;2.10;;;11.60;74.70;;;;;;4976968;28;20054;-81
2023/10/17 09:58:08;;;;;;;5.97;2.78;;;11.80;75.80;;;;;;4960060;28;20056;-82
2023/10/17 10:01:08;;;;;;;4.93;1.75;;;11.90;75.80;;;;;;5008780;28;20050;-82
2023/10/17 10:03:36;;;;;;;4.25;1.95;;;12.00;77.00;;;;;;4978972;28;20054;-82
2023/10/17 10:06:22;;;;;;;4.57;1.92;;;12.10;74.60;;;;;;5002932;28;20059;-81
2023/10/17 10:08:48;;;;;;;4.88;2.35;;;12.10;73.00;;;;;;4971789;28;20046;-82
2023/10/17 10:11:14;;;;;;;3.50;1.77;;;12.20;75.50;;;;;;4980900;28;20042;-82
2023/10/17 10:14:02;;;;;;;2.75;1.60;;;12.40;75.70;;;;;;4976491;28;20046;-82
2023/10/17 10:16:51;;;;;;;5.70;1.90;;;12.50;74.30;;;;;;4979801;28;20389;-81
2023/10/17 10:19:17;;;;;;;4.22;1.27;;;12.60;75.00;;;;;;4975462;28;20041;-81
2023/10/17 10:21:59;;;;;;;4.47;1.42;;;12.70;74.40;;;;;;4984102;28;20561;-81
2023/10/17 10:24:26;;;;;;;4.70;1.52;;;13.00;74.40;;;;;;4959855;28;20046;-80
2023/10/17 10:27:14;;;;;;;3.90;1.27;;;13.10;74.60;;;;;;4982237;28;20525;-79
2023/10/17 10:29:40;;;;;;;4.40;1.20;;;13.30;74.30;;;;;;4981552;28;20050;-80
2023/10/17 10:32:24;;;;;;;3.65;1.20;;;13.50;74.80;;;;;;4977562;28;20050;-80
2023/10/17 10:34:50;;;;;;;5.30;1.23;;;13.50;74.10;;;;;;4990420;28;20052;-81
2023/10/17 10:37:16;;;;;;;3.95;1.38;;;13.70;74.10;;;;;;4968905;28;20042;-81
2023/10/17 10:40:10;;;;;;;2.92;1.08;;;13.80;71.90;;;;;;4935849;28;20544;-81
2023/10/17 10:42:44;;;;;;;6.20;1.92;;;13.90;72.00;;;;;;4986939;28;20045;-81
2023/10/17 10:45:31;;;;;;;5.38;1.70;;;14.00;67.70;;;;;;4993809;28;20435;-80
2023/10/17 10:47:58;;;;;;;2.78;1.63;;;14.10;71.00;;;;;;4999781;28;20173;-80
2023/10/17 10:50:34;;;;;;;2.55;1.48;;;14.20;71.80;;;;;;4972749;28;20401;-80
2023/10/17 10:53:01;;;;;;;3.28;1.42;;;14.20;66.30;;;;;;4973781;28;20054;-81
2023/10/17 10:55:28;;;;;;;4.07;1.20;;;14.30;68.10;;;;;;4963193;28;20048;-80
2023/10/17 10:57:54;;;;;;;3.90;1.10;;;14.40;67.80;;;;;;4988831;28;20057;-80
2023/10/17 11:00:20;;;;;;;5.07;1.40;;;14.60;68.20;;;;;;4940877;28;20108;-80
2023/10/17 11:02:46;;;;;;;3.22;1.23;;;14.80;69.80;;;;;;4979198;28;20379;-79
2023/10/17 11:05:14;;;;;;;4.90;1.75;;;14.80;66.90;;;;;;4999014;28;20038;-80
2023/10/17 11:07:41;;;;;;;3.83;1.85;;;14.90;65.30;;;;;;4986756;28;20038;-81
2023/10/17 11:10:08;;;;;;;4.85;1.92;;;15.00;67.80;;;;;;4946716;28;20108;-82
2023/10/17 11:12:34;;;;;;;5.88;1.77;;;15.10;65.80;;;;;;4968900;28;20140;-79
2023/10/17 11:15:18;;;;;;;7.45;1.75;;;15.30;65.20;;;;;;4984028;28;20053;-80
2023/10/17 11:17:44;;;;;;;3.22;1.48;;;15.50;67.00;;;;;;4964557;28;20047;-81
2023/10/17 11:20:17;;;;;;;2.90;1.38;;;15.70;66.00;;;;;;4976890;28;20061;-82
2023/10/17 11:22:46;;;;;;;3.63;0.97;;;15.80;65.40;;;;;;4988446;28;20042;-81
2023/10/17 11:25:21;;;;;;;4.03;1.30;;;15.70;62.40;;;;;;4955616;28;20481;-81
2023/10/17 11:27:55;;;;;;;6.15;1.67;;;15.70;62.00;;;;;;4970058;28;20137;-81
2023/10/17 11:30:34;;;;;;;3.55;1.30;;;15.80;61.80;;;;;;4958847;28;20050;-80
2023/10/17 11:33:04;;;;;;;4.20;1.98;;;15.90;60.20;;;;;;4986986;28;20243;-80
2023/10/17 11:35:34;;;;;;;3.63;1.23;;;16.10;62.70;;;;;;4998182;28;20041;-81
2023/10/17 11:38:01;;;;;;;1.70;1.10;;;16.10;58.90;;;;;;4981545;28;20049;-81
2023/10/17 11:40:44;;;;;;;4.10;1.08;;;16.20;61.20;;;;;;4998623;28;20053;-81
2023/10/17 11:43:20;;;;;;;4.25;1.27;;;16.20;59.60;;;;;;5015670;28;20556;-81
2023/10/17 11:45:47;;;;;;;3.83;1.45;;;16.20;58.40;;;;;;4982892;28;20057;-79
2023/10/17 11:48:27;;;;;;;4.13;1.77;;;16.30;58.60;;;;;;4998630;28;20058;-80
2023/10/17 11:51:18;;;;;;;3.92;1.23;;;16.00;57.60;;;;;;4982946;28;20394;-81
2023/10/17 11:54:07;;;;;;;3.45;1.33;;;16.30;59.90;;;;;;5000015;28;20119;-80
2023/10/17 11:56:37;;;;;;;2.30;1.60;;;16.50;58.10;;;;;;4999059;28;20049;-81
2023/10/17 11:59:07;;;;;;;3.55;1.30;;;16.70;59.30;;;;;;4966776;28;20050;-81
2023/10/17 12:01:33;;;;;;;5.78;1.42;;;16.60;57.90;;;;;;4999133;28;20125;-80
2023/10/17 12:04:06;;;;;;;5.75;1.25;;;16.80;58.00;;;;;;4982533;28;20049;-81
2023/10/17 12:06:34;;;;;;;4.85;1.40;;;16.80;57.00;;;;;;4999340;28;20034;-80
2023/10/17 12:11:52;;;;;;;4.88;1.02;;;17.00;57.50;;;;;;4996979;28;20085;-80
2023/10/17 12:14:21;;;;;;;5.63;1.70;;;17.30;58.20;;;;;;5033258;28;20022;-81
2023/10/17 12:16:48;;;;;;;2.70;1.35;;;17.40;57.20;;;;;;5024192;28;20045;-79
2023/10/17 12:19:18;;;;;;;2.53;1.10;;;17.30;52.60;;;;;;5007715;28;20033;-80
2023/10/17 12:21:48;;;;;;;3.17;0.98;;;17.30;56.60;;;;;;5007529;28;20089;-82
2023/10/17 12:24:16;;;;;;;2.63;1.10;;;17.50;56.30;;;;;;5008533;28;20464;-81
2023/10/17 12:26:45;;;;;;;3.15;1.00;;;17.80;57.30;;;;;;5008031;28;20048;-81
2023/10/17 12:29:12;;;;;;;3.17;1.38;;;17.90;54.20;;;;;;5023928;28;20089;-81
2023/10/17 12:31:39;;;;;;;1.92;1.00;;;18.10;56.20;;;;;;5007771;28;20052;-80
2023/10/17 12:34:07;;;;;;;4.03;1.10;;;18.10;55.00;;;;;;5007572;28;20041;-81
2023/10/17 12:36:37;;;;;;;2.50;1.10;;;18.10;54.80;;;;;;5004216;28;20105;-80
2023/10/17 12:39:08;;;;;;;4.68;1.30;;;18.20;55.30;;;;;;4982188;28;20038;-83
2023/10/17 12:41:35;;;;;;;2.58;1.02;;;18.20;54.90;;;;;;5003139;28;20026;-83
2023/10/17 12:44:01;;;;;;;2.53;0.88;;;18.20;54.90;;;;;;4983464;28;20042;-81
2023/10/17 12:46:27;;;;;;;5.45;1.60;;;18.00;54.20;;;;;;5013285;28;20044;-83
2023/10/17 12:48:53;;;;;;;3.45;1.10;;;18.30;55.10;;;;;;4998450;28;20054;-80
2023/10/17 12:51:23;;;;;;;5.55;1.27;;;18.50;54.80;;;;;;5014292;28;20069;-81
2023/10/17 12:53:49;;;;;;;3.35;1.23;;;18.50;53.60;;;;;;4998192;28;20061;-79
2023/10/17 12:56:15;;;;;;;4.05;1.20;;;18.50;54.00;;;;;;4982126;28;20046;-80
2023/10/17 12:58:41;;;;;;;3.60;1.55;;;18.50;53.50;;;;;;5013018;28;20038;-79
2023/10/17 13:01:07;;;;;;;2.78;1.13;;;18.40;53.10;;;;;;4981854;28;20040;-82
2023/10/17 13:03:36;;;;;;;2.80;1.30;;;18.20;52.00;;;;;;4981686;28;20096;-79
2023/10/17 13:06:02;;;;;;;4.28;1.33;;;17.90;50.30;;;;;;4981357;28;20504;-81
2023/10/17 13:08:28;;;;;;;3.92;1.20;;;17.90;53.60;;;;;;4997726;28;20033;-80
2023/10/17 13:10:55;;;;;;;6.78;1.45;;;17.80;52.80;;;;;;4997977;28;20392;-80
2023/10/17 13:13:24;;;;;;;2.65;1.27;;;18.00;54.20;;;;;;4981764;28;20046;-80
2023/10/17 13:15:52;;;;;;;4.88;1.80;;;18.20;54.20;;;;;;5018059;28;20037;-81
2023/10/17 13:18:19;;;;;;;4.60;2.08;;;18.30;53.70;;;;;;4999636;28;20049;-82
2023/10/17 13:20:54;;;;;;;6.50;1.58;;;18.20;52.00;;;;;;4966005;28;20046;-81
2023/10/17 13:23:20;;;;;;;3.00;1.08;;;18.20;51.90;;;;;;4982634;28;20042;-80
2023/10/17 13:25:49;;;;;;;2.28;0.90;;;18.30;53.60;;;;;;5001200;28;20052;-82
2023/10/17 13:28:16;;;;;;;6.70;1.50;;;18.50;53.90;;;;;;4981610;28;20038;-80
2023/10/17 13:30:42;;;;;;;1.70;1.10;;;18.40;50.90;;;;;;4981717;28;20050;-80
2023/10/17 13:33:08;;;;;;;3.67;1.05;;;18.50;52.90;;;;;;5014351;28;20145;-80
2023/10/17 13:35:37;;;;;;;4.00;1.10;;;18.70;53.30;;;;;;5016073;28;20138;-79
2023/10/17 13:38:03;;;;;;;3.50;1.10;;;18.80;53.30;;;;;;4981355;28;20042;-80
2023/10/17 13:40:32;;;;;;;2.65;1.10;;;18.80;53.50;;;;;;4964599;28;20042;-80
2023/10/17 13:43:00;;;;;;;2.33;1.33;;;18.90;52.80;;;;;;4982207;28;20042;-79
2023/10/17 13:45:27;;;;;;;4.43;1.05;;;18.90;53.10;;;;;;4982605;28;20410;-80
2023/10/17 13:47:54;;;;;;;2.58;1.25;;;19.00;52.70;;;;;;4996514;28;20089;-81
2023/10/17 13:50:21;;;;;;;5.10;1.50;;;19.10;53.00;;;;;;4980609;28;20132;-80
2023/10/17 13:52:48;;;;;;;2.80;1.00;;;19.20;53.00;;;;;;4996859;28;20057;-80
2023/10/17 13:55:23;;;;;;;2.97;1.20;;;19.10;51.80;;;;;;4996811;28;20052;-80
2023/10/17 13:57:49;;;;;;;1.52;1.08;;;19.10;51.60;;;;;;4981797;28;20045;-78
2023/10/17 14:00:21;;;;;;;5.43;1.50;;;18.90;51.80;;;;;;5014037;28;20042;-78
2023/10/17 14:02:49;;;;;;;2.95;1.20;;;18.90;52.20;;;;;;4982997;28;20456;-79
2023/10/17 14:05:19;;;;;;;2.65;1.20;;;19.00;52.20;;;;;;4998108;28;20074;-81
2023/10/17 14:07:48;;;;;;;3.80;1.23;;;19.00;52.50;;;;;;4997827;28;20206;-80
2023/10/17 14:10:14;;;;;;;4.53;1.60;;;18.90;51.70;;;;;;4996395;28;20045;-80
2023/10/17 14:12:41;;;;;;;4.70;1.42;;;19.00;52.50;;;;;;4980578;28;20050;-80
2023/10/17 14:15:10;;;;;;;3.35;1.20;;;18.90;52.30;;;;;;4979962;28;20084;-79
2023/10/17 14:17:36;;;;;;;4.18;1.42;;;18.80;51.90;;;;;;4979936;28;20133;-82
2023/10/17 14:20:14;;;;;;;3.85;1.60;;;18.90;52.40;;;;;;4979895;28;20049;-80
2023/10/17 14:23:16;;;;;;;4.53;1.48;;;18.60;52.60;;;;;;4995882;28;20104;-80
2023/10/17 14:28:16;;;;;;;;;;;18.50;52.90;;;;;;4987025;28;20486;-79
2023/10/17 14:30:43;;;;;;;2.85;1.20;;;18.50;52.80;;;;;;4996466;28;19924;-79
2023/10/17 14:33:09;;;;;;;4.85;1.50;;;18.50;53.80;;;;;;4979363;28;20038;-79
2023/10/17 14:35:35;;;;;;;4.30;1.08;;;18.40;53.30;;;;;;4995973;28;20410;-80
2023/10/17 14:38:02;;;;;;;2.40;1.30;;;18.10;53.90;;;;;;4980628;28;20038;-79
2023/10/17 14:40:29;;;;;;;2.50;1.52;;;18.30;54.30;;;;;;4980045;28;20037;-80
2023/10/17 14:42:55;;;;;;;4.32;1.92;;;18.20;54.30;;;;;;4979914;28;20045;-80
2023/10/17 14:45:24;;;;;;;2.20;1.33;;;18.40;54.30;;;;;;5012264;28;20073;-81
2023/10/17 14:47:50;;;;;;;3.58;1.50;;;18.50;54.10;;;;;;4995892;28;20388;-80
2023/10/17 14:50:16;;;;;;;3.63;1.33;;;18.40;52.00;;;;;;4979528;28;20038;-80
2023/10/17 14:52:42;;;;;;;3.22;1.27;;;18.40;53.50;;;;;;4963804;28;20056;-79
2023/10/17 14:55:14;;;;;;;6.78;1.52;;;18.40;53.90;;;;;;4980963;28;20046;-80
2023/10/17 14:57:41;;;;;;;2.67;1.40;;;18.50;53.50;;;;;;4984151;28;20044;-81
2023/10/17 15:00:14;;;;;;;4.07;1.40;;;18.40;53.40;;;;;;4982082;28;20061;-77
2023/10/17 15:02:40;;;;;;;3.63;1.38;;;18.50;53.40;;;;;;4998670;28;20053;-80
2023/10/17 15:05:07;;;;;;;4.93;1.90;;;18.50;51.70;;;;;;4964483;28;20398;-79
2023/10/17 15:07:36;;;;;;;3.72;1.70;;;18.40;53.60;;;;;;4995752;28;20056;-79
2023/10/17 15:10:02;;;;;;;2.50;1.58;;;18.40;54.00;;;;;;4979366;28;20063;-80
2023/10/17 15:12:27;;;;;;;4.80;1.80;;;18.00;54.30;;;;;;5012758;28;20494;-81
2023/10/17 15:14:55;;;;;;;3.63;1.60;;;17.50;53.80;;;;;;4980627;28;20106;-81
2023/10/17 15:17:21;;;;;;;3.10;1.83;;;17.50;55.00;;;;;;4996074;28;20525;-81
2023/10/17 15:19:49;;;;;;;4.45;2.17;;;17.10;55.00;;;;;;4962958;28;20224;-80
2023/10/17 15:22:15;;;;;;;3.97;1.60;;;16.90;55.60;;;;;;4976319;28;20438;-80
2023/10/17 15:24:41;;;;;;;6.95;4.13;;;16.60;56.20;;;;;;4960267;28;20136;-80
2023/10/17 15:27:07;;;;;;;3.65;1.70;;;16.60;56.70;;;;;;4960119;28;20038;-81
2023/10/17 15:29:32;;;;;;;2.78;1.60;;;16.20;57.00;;;;;;4960271;28;20408;-81
2023/10/17 15:31:58;;;;;;;3.35;1.75;;;16.20;56.90;;;;;;4959781;28;20046;-81
2023/10/17 15:34:24;;;;;;;5.75;2.00;;;16.10;57.60;;;;;;4960178;28;20133;-80
2023/10/17 15:36:51;;;;;;;8.52;4.47;;;16.20;57.80;;;;;;4975547;28;20046;-82
2023/10/17 15:39:24;;;;;;;4.68;2.58;;;16.20;57.80;;;;;;4991924;28;20042;-79
2023/10/17 15:41:51;;;;;;;7.43;1.73;;;16.10;57.90;;;;;;4991927;28;20038;-80
2023/10/17 15:44:17;;;;;;;3.33;1.38;;;16.20;58.30;;;;;;4976053;28;20129;-82
2023/10/17 15:46:43;;;;;;;3.20;1.70;;;16.00;58.40;;;;;;4962410;28;20368;-80
2023/10/17 15:49:09;;;;;;;3.70;1.63;;;16.00;58.30;;;;;;4979435;28;20056;-80